»·PEaware :: N7X KMHV-KSBP

N7X :: KMHV-KSBP

FLIGHT INFORMATION

Flight Status: Arrived
Operator: Privately registered:
United States
More flights under this callsign
Pilot: Will N. (25416)
Aircraft: SOCATA TBM-900
(TBM9)
More flights by this aircraft type
Origin: KMHV Mojave
United States
Destination: KSBP San Luis Co Regl
United States
More flights between these airports :: More routes between these airports
Route: JERID FLW WYNNR
File this flight plan on PilotEdge
Remarks:
Altitude:
(Current/Filed)
14,000ft
Speed:
(Current/Filed)
250kts
Departed: 05-Mar-23 07:19 PM
Arrived: 05-Mar-23 07:54 PM
Distance/Time
Traveled:
123nm/0:35
Distance/Time
To Go:
Arrived

Flight Plot

Page will automatically refresh every two minutes.

Flight plan parsing failed; only flown route is shown


Map Options




Map Legend


Flown Route
Filed Route
Departure Airport
Arrival Airport
Navaid (VOR, NDB)
Fix

Horizontal Profiles

Position Reports

Time Latitude Longitude Heading Altitude Ground
Speed
05-Mar-23 19:00 35.057129 -118.148651 272 2744ft 0kts
05-Mar-23 19:01 35.057129 -118.148651 272 2744ft 0kts
05-Mar-23 19:02 35.057129 -118.148651 272 2744ft 0kts
05-Mar-23 19:03 35.057129 -118.148651 272 2744ft 0kts
05-Mar-23 19:04 35.057129 -118.148651 272 2744ft 0kts
05-Mar-23 19:05 35.057129 -118.148651 272 2744ft 0kts
05-Mar-23 19:06 35.057129 -118.148651 272 2744ft 0kts
05-Mar-23 19:07 35.057129 -118.148651 272 2744ft 0kts
05-Mar-23 19:08 35.057129 -118.148651 272 2744ft 0kts
05-Mar-23 19:09 35.057129 -118.148651 272 2744ft 0kts
05-Mar-23 19:10 35.057129 -118.148651 272 2744ft 0kts
05-Mar-23 19:11 35.057129 -118.148651 272 2744ft 0kts
05-Mar-23 19:12 35.057129 -118.148653 273 2744ft 0kts
05-Mar-23 19:13 35.057299 -118.148853 34 2745ft 0kts
05-Mar-23 19:14 35.057489 -118.148496 74 2745ft 8kts
05-Mar-23 19:15 35.057580 -118.143074 88 2733ft 10kts
05-Mar-23 19:16 35.058211 -118.142632 358 2733ft 0kts
05-Mar-23 19:17 35.059212 -118.143463 267 2737ft 18kts
05-Mar-23 19:18 35.058885 -118.178798 275 3650ft 143kts
05-Mar-23 19:19 35.031596 -118.215901 224 5432ft 167kts
05-Mar-23 19:20 34.994871 -118.253589 223 7279ft 182kts
05-Mar-23 19:21 34.954827 -118.294717 220 9459ft 193kts
05-Mar-23 19:22 34.915565 -118.334861 213 11715ft 188kts
05-Mar-23 19:23 34.876045 -118.377151 234 13822ft 199kts
05-Mar-23 19:24 34.884797 -118.456240 278 14054ft 267kts
05-Mar-23 19:25 34.898990 -118.548602 279 14034ft 282kts
05-Mar-23 19:26 34.913391 -118.642894 279 13956ft 286kts
05-Mar-23 19:27 34.927831 -118.737966 279 13944ft 284kts
05-Mar-23 19:28 34.942090 -118.832397 280 13949ft 282kts
05-Mar-23 19:29 34.956186 -118.926160 280 13970ft 280kts
05-Mar-23 19:30 34.970082 -119.019100 280 13992ft 277kts
05-Mar-23 19:31 34.983706 -119.110781 279 14000ft 276kts
05-Mar-23 19:32 34.997336 -119.203003 279 14000ft 275kts
05-Mar-23 19:33 35.010827 -119.294783 279 14001ft 274kts
05-Mar-23 19:34 35.024155 -119.385949 279 14002ft 274kts
05-Mar-23 19:35 35.037523 -119.477896 279 13965ft 274kts
05-Mar-23 19:36 35.050696 -119.569008 279 13970ft 273kts
05-Mar-23 19:37 35.063786 -119.660025 279 13980ft 272kts
05-Mar-23 19:38 35.076798 -119.750987 279 13988ft 271kts
05-Mar-23 19:39 35.086470 -119.818946 279 13991ft 268kts
05-Mar-23 19:40 35.090471 -119.847135 279 13992ft 268kts
05-Mar-23 19:41 35.104550 -120.027051 274 12020ft 275kts
05-Mar-23 19:42 35.107219 -120.064647 274 11400ft 269kts
05-Mar-23 19:44 35.118601 -120.279074 270 8210ft 235kts
05-Mar-23 19:45 35.119651 -120.358445 270 6847ft 227kts
05-Mar-23 19:46 35.120506 -120.424757 271 6544ft 156kts
05-Mar-23 19:47 35.139102 -120.468953 305 5012ft 148kts
05-Mar-23 19:48 35.162608 -120.509963 306 3510ft 146kts
05-Mar-23 19:49 35.185017 -120.550138 303 2070ft 141kts
05-Mar-23 19:50 35.206568 -120.587483 307 1215ft 121kts
05-Mar-23 19:51 35.222478 -120.615143 305 805ft 95kts
05-Mar-23 19:52 35.236519 -120.639510 309 215ft 69kts
05-Mar-23 19:53 35.239859 -120.643971 48 215ft 0kts
05-Mar-23 19:54 35.239695 -120.643295 125 215ft 6kts
05-Mar-23 19:55 35.239011 -120.641809 124 215ft 0kts

Navigation Log

Ident Type
Flight plan parsing failed, navigation log unavailable